sensor_id;sensor_type;location;lat;lon;timestamp;pressure;altitude;pressure_sealevel;temperature;humidity
48792;BME280;34587;48.816;9.420;2023-04-02T04:50:55;98225.88;;;7.91;84.69
48792;BME280;34587;48.816;9.420;2023-04-02T04:53:26;98225.03;;;7.91;85.65
48792;BME280;34587;48.816;9.420;2023-04-02T04:56:02;98227.59;;;7.92;86.92
48792;BME280;34587;48.816;9.420;2023-04-02T04:58:41;98234.41;;;7.96;85.87
48792;BME280;34587;48.816;9.420;2023-04-02T05:01:15;98227.50;;;7.98;86.20
48792;BME280;34587;48.816;9.420;2023-04-02T05:03:52;98237.06;;;7.92;85.46
48792;BME280;34587;48.816;9.420;2023-04-02T05:07:24;98236.28;;;7.88;85.47
48792;BME280;34587;48.816;9.420;2023-04-02T05:09:43;98239.72;;;7.87;84.54
48792;BME280;34587;48.816;9.420;2023-04-02T05:14:54;98241.25;;;7.97;83.99
48792;BME280;34587;48.816;9.420;2023-04-02T05:23:02;98248.97;;;8.01;84.29
48792;BME280;34587;48.816;9.420;2023-04-02T05:25:31;98250.78;;;7.94;85.61
48792;BME280;34587;48.816;9.420;2023-04-02T05:28:19;98262.00;;;7.91;85.65
48792;BME280;34587;48.816;9.420;2023-04-02T05:33:55;98261.13;;;7.92;85.68
48792;BME280;34587;48.816;9.420;2023-04-02T05:36:26;98262.00;;;7.91;86.23
48792;BME280;34587;48.816;9.420;2023-04-02T05:38:53;98275.69;;;7.96;85.47
48792;BME280;34587;48.816;9.420;2023-04-02T05:41:25;98272.19;;;8.01;86.24
48792;BME280;34587;48.816;9.420;2023-04-02T05:43:59;98275.59;;;8.03;85.31
48792;BME280;34587;48.816;9.420;2023-04-02T05:46:30;98275.59;;;8.03;84.65
48792;BME280;34587;48.816;9.420;2023-04-02T05:48:58;98277.09;;;8.16;84.40
48792;BME280;34587;48.816;9.420;2023-04-02T05:51:40;98280.50;;;8.18;84.04
48792;BME280;34587;48.816;9.420;2023-04-02T05:54:15;98284.72;;;8.23;83.65
48792;BME280;34587;48.816;9.420;2023-04-02T05:56:45;98286.88;;;8.49;82.43
48792;BME280;34587;48.816;9.420;2023-04-02T05:59:19;98289.41;;;8.53;82.08
48792;BME280;34587;48.816;9.420;2023-04-02T06:07:12;98292.00;;;8.53;81.27
48792;BME280;34587;48.816;9.420;2023-04-02T06:09:47;98303.97;;;8.57;80.43
48792;BME280;34587;48.816;9.420;2023-04-02T06:12:47;98301.75;;;8.83;80.13
48792;BME280;34587;48.816;9.420;2023-04-02T06:15:17;98308.63;;;8.84;79.67
48792;BME280;34587;48.816;9.420;2023-04-02T06:20:16;98320.78;;;8.79;80.02
48792;BME280;34587;48.816;9.420;2023-04-02T06:22:44;98315.44;;;8.88;79.80
48792;BME280;34587;48.816;9.420;2023-04-02T06:25:21;98318.78;;;8.93;79.09
48792;BME280;34587;48.816;9.420;2023-04-02T06:27:49;98321.38;;;8.93;79.06
48792;BME280;34587;48.816;9.420;2023-04-02T06:30:23;98325.56;;;8.99;79.02
48792;BME280;34587;48.816;9.420;2023-04-02T06:32:49;98334.13;;;9.02;79.17
48792;BME280;34587;48.816;9.420;2023-04-02T06:35:15;98329.03;;;8.99;79.81
48792;BME280;34587;48.816;9.420;2023-04-02T06:37:49;98337.78;;;8.91;80.50
48792;BME280;34587;48.816;9.420;2023-04-02T06:40:42;98335.81;;;9.04;78.66
48792;BME280;34587;48.816;9.420;2023-04-02T06:43:35;98337.75;;;8.92;80.10
48792;BME280;34587;48.816;9.420;2023-04-02T06:46:07;98341.94;;;8.99;80.51
48792;BME280;34587;48.816;9.420;2023-04-02T06:48:36;98354.78;;;9.02;79.61
48792;BME280;34587;48.816;9.420;2023-04-02T06:51:10;98354.66;;;9.09;78.95
48792;BME280;34587;48.816;9.420;2023-04-02T06:53:46;98362.47;;;9.07;78.70
48792;BME280;34587;48.816;9.420;2023-04-02T06:58:56;98374.28;;;9.20;78.04
48792;BME280;34587;48.816;9.420;2023-04-02T07:01:25;98376.22;;;9.08;78.70
48792;BME280;34587;48.816;9.420;2023-04-02T07:03:53;98382.16;;;9.13;78.53
48792;BME280;34587;48.816;9.420;2023-04-02T07:06:20;98388.22;;;9.12;78.78
48792;BME280;34587;48.816;9.420;2023-04-02T07:08:45;98387.34;;;9.13;77.92
48792;BME280;34587;48.816;9.420;2023-04-02T07:11:13;98388.06;;;9.21;78.38
48792;BME280;34587;48.816;9.420;2023-04-02T07:13:40;98395.69;;;9.27;79.68
48792;BME280;34587;48.816;9.420;2023-04-02T07:16:12;98394.66;;;9.36;77.55
48792;BME280;34587;48.816;9.420;2023-04-02T07:18:38;98402.19;;;9.46;75.76
48792;BME280;34587;48.816;9.420;2023-04-02T07:21:04;98404.03;;;9.43;76.64
48792;BME280;34587;48.816;9.420;2023-04-02T07:23:29;98403.66;;;9.60;75.95
48792;BME280;34587;48.816;9.420;2023-04-02T07:25:55;98403.97;;;9.44;77.30
48792;BME280;34587;48.816;9.420;2023-04-02T07:28:21;98411.16;;;9.30;77.72
48792;BME280;34587;48.816;9.420;2023-04-02T07:30:46;98414.25;;;9.47;75.96
48792;BME280;34587;48.816;9.420;2023-04-02T07:33:13;98417.31;;;9.68;76.08
48792;BME280;34587;48.816;9.420;2023-04-02T07:35:39;98416.59;;;10.01;74.69
48792;BME280;34587;48.816;9.420;2023-04-02T07:38:05;98418.84;;;10.17;73.02
48792;BME280;34587;48.816;9.420;2023-04-02T07:40:30;98423.81;;;9.86;73.17
48792;BME280;34587;48.816;9.420;2023-04-02T07:42:55;98423.63;;;9.96;73.14
48792;BME280;34587;48.816;9.420;2023-04-02T07:45:21;98425.31;;;9.97;73.89
48792;BME280;34587;48.816;9.420;2023-04-02T07:47:46;98430.16;;;10.13;73.72
48792;BME280;34587;48.816;9.420;2023-04-02T07:50:11;98434.41;;;9.75;74.32
48792;BME280;34587;48.816;9.420;2023-04-02T07:52:39;98440.06;;;9.94;73.56
48792;BME280;34587;48.816;9.420;2023-04-02T07:55:06;98435.59;;;10.00;73.54
48792;BME280;34587;48.816;9.420;2023-04-02T07:57:32;98443.16;;;10.11;73.11
48792;BME280;34587;48.816;9.420;2023-04-02T07:59:57;98447.53;;;10.08;75.57
48792;BME280;34587;48.816;9.420;2023-04-02T08:02:23;98451.56;;;10.19;75.02
48792;BME280;34587;48.816;9.420;2023-04-02T08:04:50;98459.44;;;10.15;75.33
48792;BME280;34587;48.816;9.420;2023-04-02T08:07:16;98459.28;;;10.24;74.46
48792;BME280;34587;48.816;9.420;2023-04-02T08:09:42;98463.00;;;10.51;72.17
48792;BME280;34587;48.816;9.420;2023-04-02T08:12:12;98468.63;;;10.31;71.02
48792;BME280;34587;48.816;9.420;2023-04-02T08:14:37;98462.41;;;10.38;71.95
48792;BME280;34587;48.816;9.420;2023-04-02T08:17:03;98462.38;;;10.41;71.76
48792;BME280;34587;48.816;9.420;2023-04-02T08:19:28;98465.41;;;10.18;74.45
48792;BME280;34587;48.816;9.420;2023-04-02T08:21:55;98481.28;;;10.43;72.23
48792;BME280;34587;48.816;9.420;2023-04-02T08:24:20;98477.06;;;10.41;72.35
48792;BME280;34587;48.816;9.420;2023-04-02T08:26:47;98486.22;;;10.14;73.01
48792;BME280;34587;48.816;9.420;2023-04-02T08:29:13;98481.03;;;10.14;72.76
48792;BME280;34587;48.816;9.420;2023-04-02T08:31:39;98486.38;;;10.49;71.59
48792;BME280;34587;48.816;9.420;2023-04-02T08:34:04;98485.50;;;10.86;70.47
48792;BME280;34587;48.816;9.420;2023-04-02T08:36:33;98491.88;;;11.09;69.56
48792;BME280;34587;48.816;9.420;2023-04-02T08:38:59;98493.38;;;10.83;70.11
48792;BME280;34587;48.816;9.420;2023-04-02T08:41:26;98501.69;;;11.30;67.93
48792;BME280;34587;48.816;9.420;2023-04-02T08:46:48;98502.41;;;11.02;69.75
48792;BME280;34587;48.816;9.420;2023-04-02T08:49:20;98502.63;;;10.93;69.39
48792;BME280;34587;48.816;9.420;2023-04-02T08:51:49;98509.19;;;11.08;67.71
48792;BME280;34587;48.816;9.420;2023-04-02T08:54:24;98519.56;;;11.06;68.48
48792;BME280;34587;48.816;9.420;2023-04-02T08:56:55;98523.00;;;11.09;68.76
48792;BME280;34587;48.816;9.420;2023-04-02T08:59:35;98518.53;;;11.14;70.06
48792;BME280;34587;48.816;9.420;2023-04-02T09:02:40;98531.41;;;11.17;68.23
48792;BME280;34587;48.816;9.420;2023-04-02T09:05:17;98523.63;;;10.81;69.28
48792;BME280;34587;48.816;9.420;2023-04-02T09:07:46;98531.34;;;10.84;69.90
48792;BME280;34587;48.816;9.420;2023-04-02T09:10:15;98534.72;;;11.57;68.07
48792;BME280;34587;48.816;9.420;2023-04-02T09:12:44;98540.72;;;11.59;68.08
48792;BME280;34587;48.816;9.420;2023-04-02T09:15:33;98533.91;;;11.55;66.23
48792;BME280;34587;48.816;9.420;2023-04-02T09:18:05;98537.16;;;11.29;67.82
48792;BME280;34587;48.816;9.420;2023-04-02T09:20:35;98548.19;;;11.72;66.22
48792;BME280;34587;48.816;9.420;2023-04-02T09:23:01;98547.09;;;11.82;65.79
48792;BME280;34587;48.816;9.420;2023-04-02T09:25:27;98553.56;;;11.98;66.75
48792;BME280;34587;48.816;9.420;2023-04-02T09:27:57;98553.22;;;12.11;65.24
48792;BME280;34587;48.816;9.420;2023-04-02T09:30:40;98558.28;;;11.84;65.77
48792;BME280;34587;48.816;9.420;2023-04-02T09:33:07;98554.59;;;11.58;66.80
48792;BME280;34587;48.816;9.420;2023-04-02T09:35:53;98560.94;;;11.81;67.62
48792;BME280;34587;48.816;9.420;2023-04-02T09:38:26;98571.84;;;11.94;66.40
48792;BME280;34587;48.816;9.420;2023-04-02T09:43:27;98573.03;;;11.82;66.20
48792;BME280;34587;48.816;9.420;2023-04-02T09:46:05;98574.00;;;12.11;66.13
48792;BME280;34587;48.816;9.420;2023-04-02T09:48:59;98584.09;;;11.90;65.83
48792;BME280;34587;48.816;9.420;2023-04-02T09:51:27;98582.91;;;11.68;67.14
48792;BME280;34587;48.816;9.420;2023-04-02T09:56:30;98587.53;;;11.91;66.58
48792;BME280;34587;48.816;9.420;2023-04-02T09:59:24;98594.63;;;12.17;65.07
48792;BME280;34587;48.816;9.420;2023-04-02T10:04:38;98597.44;;;12.09;67.19
48792;BME280;34587;48.816;9.420;2023-04-02T10:07:41;98594.97;;;12.35;65.12
48792;BME280;34587;48.816;9.420;2023-04-02T10:13:20;98590.22;;;13.07;62.01
48792;BME280;34587;48.816;9.420;2023-04-02T10:16:03;98592.94;;;13.32;62.40
48792;BME280;34587;48.816;9.420;2023-04-02T10:18:43;98584.66;;;14.23;57.80
48792;BME280;34587;48.816;9.420;2023-04-02T10:21:11;98600.19;;;14.01;58.42
48792;BME280;34587;48.816;9.420;2023-04-02T10:23:38;98602.19;;;13.68;59.03
48792;BME280;34587;48.816;9.420;2023-04-02T10:31:25;98599.03;;;14.81;55.83
48792;BME280;34587;48.816;9.420;2023-04-02T10:34:11;98596.94;;;15.13;54.30
48792;BME280;34587;48.816;9.420;2023-04-02T10:36:58;98611.06;;;14.85;54.36
48792;BME280;34587;48.816;9.420;2023-04-02T10:42:36;98614.75;;;14.56;56.55
48792;BME280;34587;48.816;9.420;2023-04-02T10:47:59;98618.59;;;14.46;57.46
48792;BME280;34587;48.816;9.420;2023-04-02T10:56:37;98630.50;;;14.03;58.37
48792;BME280;34587;48.816;9.420;2023-04-02T10:59:16;98626.38;;;13.71;58.69
48792;BME280;34587;48.816;9.420;2023-04-02T11:01:42;98637.66;;;13.97;59.06
48792;BME280;34587;48.816;9.420;2023-04-02T11:04:19;98630.38;;;13.81;58.36
48792;BME280;34587;48.816;9.420;2023-04-02T11:06:58;98631.53;;;13.73;58.91
48792;BME280;34587;48.816;9.420;2023-04-02T11:09:29;98650.00;;;13.09;61.07
48792;BME280;34587;48.816;9.420;2023-04-02T11:11:56;98641.09;;;13.46;60.39
48792;BME280;34587;48.816;9.420;2023-04-02T11:14:25;98648.16;;;13.42;61.03
48792;BME280;34587;48.816;9.420;2023-04-02T11:16:53;98638.72;;;13.91;59.20
48792;BME280;34587;48.816;9.420;2023-04-02T11:19:22;98646.84;;;13.82;58.64
48792;BME280;34587;48.816;9.420;2023-04-02T11:24:36;98643.25;;;14.11;56.97
48792;BME280;34587;48.816;9.420;2023-04-02T11:27:04;98650.56;;;13.20;60.48
48792;BME280;34587;48.816;9.420;2023-04-02T11:29:30;98650.53;;;13.22;61.54
48792;BME280;34587;48.816;9.420;2023-04-02T11:32:44;98658.41;;;12.27;62.81
48792;BME280;34587;48.816;9.420;2023-04-02T11:35:45;98670.25;;;12.37;64.05
48792;BME280;34587;48.816;9.420;2023-04-02T11:40:50;98671.81;;;12.12;66.13
48792;BME280;34587;48.816;9.420;2023-04-02T11:48:29;98672.13;;;12.94;64.04
48792;BME280;34587;48.816;9.420;2023-04-02T11:50:55;98665.84;;;13.59;61.99
48792;BME280;34587;48.816;9.420;2023-04-02T11:53:29;98665.06;;;14.08;61.05
48792;BME280;34587;48.816;9.420;2023-04-02T12:10:00;98676.09;;;13.90;58.45
48792;BME280;34587;48.816;9.420;2023-04-02T12:12:32;98680.13;;;13.74;58.99
48792;BME280;34587;48.816;9.420;2023-04-02T12:14:59;98687.81;;;13.50;59.15
48792;BME280;34587;48.816;9.420;2023-04-02T12:17:37;98683.59;;;13.73;59.18
48792;BME280;34587;48.816;9.420;2023-04-02T12:20:22;98693.63;;;13.85;58.68
48792;BME280;34587;48.816;9.420;2023-04-02T12:22:51;98692.72;;;13.31;60.38
48792;BME280;34587;48.816;9.420;2023-04-02T12:27:42;98698.59;;;13.38;61.54
48792;BME280;34587;48.816;9.420;2023-04-02T12:30:20;98704.31;;;13.20;60.37
48792;BME280;34587;48.816;9.420;2023-04-02T12:32:46;98708.63;;;13.22;61.00
48792;BME280;34587;48.816;9.420;2023-04-02T12:35:34;98703.78;;;12.79;62.73
48792;BME280;34587;48.816;9.420;2023-04-02T12:38:00;98710.91;;;12.71;64.43
48792;BME280;34587;48.816;9.420;2023-04-02T12:40:26;98711.34;;;12.55;63.36
48792;BME280;34587;48.816;9.420;2023-04-02T12:42:52;98716.28;;;12.65;64.02
48792;BME280;34587;48.816;9.420;2023-04-02T12:45:26;98715.09;;;13.07;61.80
48792;BME280;34587;48.816;9.420;2023-04-02T12:47:53;98717.25;;;12.28;62.55
48792;BME280;34587;48.816;9.420;2023-04-02T12:50:20;98714.84;;;12.54;62.83
48792;BME280;34587;48.816;9.420;2023-04-02T12:52:51;98724.09;;;12.32;63.22
48792;BME280;34587;48.816;9.420;2023-04-02T12:55:22;98718.28;;;12.22;62.68
48792;BME280;34587;48.816;9.420;2023-04-02T12:57:48;98724.97;;;12.31;62.54
48792;BME280;34587;48.816;9.420;2023-04-02T13:02:46;98729.03;;;12.41;65.01
48792;BME280;34587;48.816;9.420;2023-04-02T13:05:12;98738.38;;;12.16;67.70
48792;BME280;34587;48.816;9.420;2023-04-02T13:07:55;98734.22;;;11.32;70.63
48792;BME280;34587;48.816;9.420;2023-04-02T13:10:23;98739.94;;;11.48;70.24
48792;BME280;34587;48.816;9.420;2023-04-02T13:12:54;98744.66;;;11.29;71.57
48792;BME280;34587;48.816;9.420;2023-04-02T13:15:31;98745.88;;;11.12;71.90
48792;BME280;34587;48.816;9.420;2023-04-02T13:18:24;98744.19;;;11.11;71.93
48792;BME280;34587;48.816;9.420;2023-04-02T13:20:59;98753.34;;;10.85;72.42
48792;BME280;34587;48.816;9.420;2023-04-02T13:25:54;98754.88;;;10.95;72.82
48792;BME280;34587;48.816;9.420;2023-04-02T13:28:20;98754.63;;;10.64;73.84
48792;BME280;34587;48.816;9.420;2023-04-02T13:30:46;98760.50;;;10.72;74.49
48792;BME280;34587;48.816;9.420;2023-04-02T13:33:15;98760.59;;;10.68;74.50
48792;BME280;34587;48.816;9.420;2023-04-02T13:35:41;98755.56;;;10.59;74.89
48792;BME280;34587;48.816;9.420;2023-04-02T13:38:07;98757.19;;;10.66;75.85
48792;BME280;34587;48.816;9.420;2023-04-02T13:40:33;98760.69;;;10.62;75.76
48792;BME280;34587;48.816;9.420;2023-04-02T13:42:59;98769.41;;;10.58;75.60
48792;BME280;34587;48.816;9.420;2023-04-02T13:45:37;98769.13;;;10.73;76.61
48792;BME280;34587;48.816;9.420;2023-04-02T13:48:05;98771.03;;;10.65;76.52
48792;BME280;34587;48.816;9.420;2023-04-02T13:50:32;98777.91;;;10.66;76.35
48792;BME280;34587;48.816;9.420;2023-04-02T13:53:04;98783.47;;;10.44;78.14
48792;BME280;34587;48.816;9.420;2023-04-02T13:55:33;98781.66;;;10.49;77.73
48792;BME280;34587;48.816;9.420;2023-04-02T13:57:59;98782.38;;;10.58;77.21
48792;BME280;34587;48.816;9.420;2023-04-02T14:00:24;98780.41;;;10.70;77.53
48792;BME280;34587;48.816;9.420;2023-04-02T14:03:00;98789.66;;;10.36;78.00
48792;BME280;34587;48.816;9.420;2023-04-02T14:05:50;98780.00;;;10.45;76.98
48792;BME280;34587;48.816;9.420;2023-04-02T14:08:46;98790.69;;;10.75;75.87
48792;BME280;34587;48.816;9.420;2023-04-02T14:11:29;98798.47;;;10.75;75.40
48792;BME280;34587;48.816;9.420;2023-04-02T14:14:11;98795.72;;;10.82;75.07
48792;BME280;34587;48.816;9.420;2023-04-02T14:16:50;98801.09;;;11.17;73.64
48792;BME280;34587;48.816;9.420;2023-04-02T14:25:08;98820.41;;;11.02;74.03
48792;BME280;34587;48.816;9.420;2023-04-02T14:30:17;98834.19;;;11.05;73.88
48792;BME280;34587;48.816;9.420;2023-04-02T14:32:58;98829.34;;;10.87;73.25
48792;BME280;34587;48.816;9.420;2023-04-02T14:35:56;98841.75;;;10.68;73.49
48792;BME280;34587;48.816;9.420;2023-04-02T14:38:24;98841.75;;;10.70;73.77
48792;BME280;34587;48.816;9.420;2023-04-02T14:43:40;98854.72;;;10.68;73.29
48792;BME280;34587;48.816;9.420;2023-04-02T14:46:09;98856.31;;;10.78;73.71
48792;BME280;34587;48.816;9.420;2023-04-02T14:48:59;98864.44;;;10.55;74.03
48792;BME280;34587;48.816;9.420;2023-04-02T14:51:36;98875.41;;;10.16;75.20
48792;BME280;34587;48.816;9.420;2023-04-02T14:54:11;98869.41;;;10.12;75.86
48792;BME280;34587;48.816;9.420;2023-04-02T14:56:44;98875.94;;;9.76;77.44
48792;BME280;34587;48.816;9.420;2023-04-02T15:02:06;98891.53;;;9.73;78.49
48792;BME280;34587;48.816;9.420;2023-04-02T15:04:37;98880.84;;;9.30;79.74
48792;BME280;34587;48.816;9.420;2023-04-02T15:07:13;98885.38;;;9.08;79.58
48792;BME280;34587;48.816;9.420;2023-04-02T15:09:48;98890.50;;;9.14;80.42
48792;BME280;34587;48.816;9.420;2023-04-02T15:12:29;98892.81;;;9.37;80.98
48792;BME280;34587;48.816;9.420;2023-04-02T15:15:02;98884.06;;;9.47;79.95
48792;BME280;34587;48.816;9.420;2023-04-02T15:17:28;98891.28;;;9.20;80.75
48792;BME280;34587;48.816;9.420;2023-04-02T15:20:01;98892.25;;;9.09;80.95
48792;BME280;34587;48.816;9.420;2023-04-02T15:22:41;98899.28;;;8.94;81.33
48792;BME280;34587;48.816;9.420;2023-04-02T15:25:42;98895.09;;;8.83;81.12
48792;BME280;34587;48.816;9.420;2023-04-02T15:28:30;98898.47;;;8.89;82.26
48792;BME280;34587;48.816;9.420;2023-04-02T15:31:02;98896.75;;;8.91;81.72
48792;BME280;34587;48.816;9.420;2023-04-02T15:33:44;98907.88;;;8.96;83.13
48792;BME280;34587;48.816;9.420;2023-04-02T15:39:32;98911.28;;;8.98;80.59
48792;BME280;34587;48.816;9.420;2023-04-02T15:44:32;98918.28;;;8.90;80.42
48792;BME280;34587;48.816;9.420;2023-04-02T15:47:27;98923.41;;;8.93;80.26
48792;BME280;34587;48.816;9.420;2023-04-02T15:52:53;98933.59;;;9.12;79.40
48792;BME280;34587;48.816;9.420;2023-04-02T15:55:44;98931.34;;;8.72;78.72
48792;BME280;34587;48.816;9.420;2023-04-02T15:58:37;98945.91;;;8.85;77.49
48792;BME280;34587;48.816;9.420;2023-04-02T16:09:28;98961.59;;;8.61;75.74
48792;BME280;34587;48.816;9.420;2023-04-02T16:12:12;98963.41;;;8.43;75.93
48792;BME280;34587;48.816;9.420;2023-04-02T16:14:40;98968.63;;;8.37;76.12
48792;BME280;34587;48.816;9.420;2023-04-02T16:17:14;98975.44;;;8.44;75.79
48792;BME280;34587;48.816;9.420;2023-04-02T16:19:45;98978.91;;;8.46;76.21
48792;BME280;34587;48.816;9.420;2023-04-02T16:22:17;98978.84;;;8.49;76.35
48792;BME280;34587;48.816;9.420;2023-04-02T16:24:55;98985.84;;;8.28;75.99
48792;BME280;34587;48.816;9.420;2023-04-02T16:27:34;98985.94;;;8.11;75.52
48792;BME280;34587;48.816;9.420;2023-04-02T16:33:19;99005.78;;;7.95;76.15
48792;BME280;34587;48.816;9.420;2023-04-02T16:36:00;99013.56;;;7.80;77.17
48792;BME280;34587;48.816;9.420;2023-04-02T16:38:42;99008.41;;;7.84;76.53
48792;BME280;34587;48.816;9.420;2023-04-02T16:41:33;99026.47;;;7.78;77.19
48792;BME280;34587;48.816;9.420;2023-04-02T16:56:07;99050.59;;;7.53;76.35
48792;BME280;34587;48.816;9.420;2023-04-02T16:58:50;99051.47;;;7.39;76.19
48792;BME280;34587;48.816;9.420;2023-04-02T17:01:30;99049.75;;;7.51;75.88
48792;BME280;34587;48.816;9.420;2023-04-02T17:04:17;99060.03;;;7.57;76.15
48792;BME280;34587;48.816;9.420;2023-04-02T17:09:53;99072.09;;;7.42;76.11
48792;BME280;34587;48.816;9.420;2023-04-02T17:12:43;99075.50;;;7.44;76.44
48792;BME280;34587;48.816;9.420;2023-04-02T17:15:19;99080.69;;;7.51;76.02
48792;BME280;34587;48.816;9.420;2023-04-02T17:17:47;99087.53;;;7.58;75.87
48792;BME280;34587;48.816;9.420;2023-04-02T17:20:19;99092.69;;;7.58;75.57
48792;BME280;34587;48.816;9.420;2023-04-02T17:22:46;99103.00;;;7.44;75.54
48792;BME280;34587;48.816;9.420;2023-04-02T17:25:23;99111.56;;;7.05;76.67
48792;BME280;34587;48.816;9.420;2023-04-02T17:27:53;99110.72;;;7.09;76.88
48792;BME280;34587;48.816;9.420;2023-04-02T17:30:35;99125.31;;;7.04;77.17
48792;BME280;34587;48.816;9.420;2023-04-02T17:33:13;99118.44;;;6.87;77.71
48792;BME280;34587;48.816;9.420;2023-04-02T17:38:23;99137.31;;;6.89;77.28
48792;BME280;34587;48.816;9.420;2023-04-02T17:41:50;99145.94;;;6.91;78.32
48792;BME280;34587;48.816;9.420;2023-04-02T17:43:56;99149.38;;;6.97;77.17
48792;BME280;34587;48.816;9.420;2023-04-02T17:49:10;99157.88;;;6.68;78.06
48792;BME280;34587;48.816;9.420;2023-04-02T17:54:37;99166.38;;;6.55;78.48
48792;BME280;34587;48.816;9.420;2023-04-02T18:06:03;99186.03;;;6.36;77.85
48792;BME280;34587;48.816;9.420;2023-04-02T18:11:38;99202.22;;;6.21;78.06
48792;BME280;34587;48.816;9.420;2023-04-02T18:19:34;99222.63;;;5.95;77.99
48792;BME280;34587;48.816;9.420;2023-04-02T18:22:20;99226.06;;;5.96;78.59
48792;BME280;34587;48.816;9.420;2023-04-02T18:25:03;99231.09;;;5.89;77.91
48792;BME280;34587;48.816;9.420;2023-04-02T18:27:56;99238.78;;;5.80;77.81
48792;BME280;34587;48.816;9.420;2023-04-02T18:33:13;99248.88;;;5.62;78.55
48792;BME280;34587;48.816;9.420;2023-04-02T18:41:24;99265.16;;;5.61;77.58
48792;BME280;34587;48.816;9.420;2023-04-02T18:49:26;99276.88;;;5.34;77.75
48792;BME280;34587;48.816;9.420;2023-04-02T18:51:59;99290.53;;;5.30;77.74
48792;BME280;34587;48.816;9.420;2023-04-02T18:54:34;99299.06;;;5.29;77.60
48792;BME280;34587;48.816;9.420;2023-04-02T18:57:14;99311.06;;;5.27;77.14
48792;BME280;34587;48.816;9.420;2023-04-02T19:02:31;99321.41;;;5.36;75.99
48792;BME280;34587;48.816;9.420;2023-04-02T19:05:12;99325.38;;;5.08;75.55
48792;BME280;34587;48.816;9.420;2023-04-02T19:07:41;99329.59;;;5.05;76.06
48792;BME280;34587;48.816;9.420;2023-04-02T19:10:27;99338.13;;;5.02;75.77
48792;BME280;34587;48.816;9.420;2023-04-02T19:12:53;99342.47;;;5.06;75.73
48792;BME280;34587;48.816;9.420;2023-04-02T19:15:18;99363.84;;;5.04;75.72
48792;BME280;34587;48.816;9.420;2023-04-02T19:18:06;99350.03;;;4.96;74.85
48792;BME280;34587;48.816;9.420;2023-04-02T19:20:43;99358.56;;;4.95;74.41
48792;BME280;34587;48.816;9.420;2023-04-02T19:23:29;99363.66;;;4.92;74.55
48792;BME280;34587;48.816;9.420;2023-04-02T19:26:12;99370.50;;;4.93;73.94
48792;BME280;34587;48.816;9.420;2023-04-02T19:34:21;99381.56;;;4.87;74.54
48792;BME280;34587;48.816;9.420;2023-04-02T19:36:56;99390.97;;;4.86;74.02
48792;BME280;34587;48.816;9.420;2023-04-02T19:44:46;99414.16;;;4.93;73.69
48792;BME280;34587;48.816;9.420;2023-04-02T19:47:13;99419.84;;;4.73;74.09
48792;BME280;34587;48.816;9.420;2023-04-02T19:49:40;99423.34;;;4.78;74.09
48792;BME280;34587;48.816;9.420;2023-04-02T19:52:05;99426.50;;;4.60;73.98
48792;BME280;34587;48.816;9.420;2023-04-02T19:54:31;99432.59;;;4.67;73.64
48792;BME280;34587;48.816;9.420;2023-04-02T19:56:56;99437.78;;;4.70;74.18
48792;BME280;34587;48.816;9.420;2023-04-02T19:59:22;99442.94;;;4.72;74.26
48792;BME280;34587;48.816;9.420;2023-04-02T20:01:47;99435.38;;;4.81;73.06
48792;BME280;34587;48.816;9.420;2023-04-02T20:04:13;99443.81;;;4.72;73.45
48792;BME280;34587;48.816;9.420;2023-04-02T20:06:39;99445.72;;;4.85;72.63
48792;BME280;34587;48.816;9.420;2023-04-02T20:09:04;99448.75;;;4.60;74.44
48792;BME280;34587;48.816;9.420;2023-04-02T20:11:34;99452.22;;;4.63;72.78
48792;BME280;34587;48.816;9.420;2023-04-02T20:13:59;99452.97;;;4.56;71.85
48792;BME280;34587;48.816;9.420;2023-04-02T20:16:25;99454.69;;;4.59;72.14
48792;BME280;34587;48.816;9.420;2023-04-02T20:18:50;99455.50;;;4.55;72.13
48792;BME280;34587;48.816;9.420;2023-04-02T20:21:16;99457.22;;;4.56;72.57
48792;BME280;34587;48.816;9.420;2023-04-02T20:23:41;99462.38;;;4.56;71.30
48792;BME280;34587;48.816;9.420;2023-04-02T20:26:07;99469.16;;;4.54;70.75
48792;BME280;34587;48.816;9.420;2023-04-02T20:28:33;99468.94;;;4.42;70.87
48792;BME280;34587;48.816;9.420;2023-04-02T20:31:24;99463.75;;;4.38;70.79
48792;BME280;34587;48.816;9.420;2023-04-02T20:33:54;99461.44;;;4.52;71.21
48792;BME280;34587;48.816;9.420;2023-04-02T20:36:20;99468.19;;;4.47;71.08
48792;BME280;34587;48.816;9.420;2023-04-02T20:38:45;99472.47;;;4.47;71.90
48792;BME280;34587;48.816;9.420;2023-04-02T20:41:11;99478.59;;;4.55;71.15
48792;BME280;34587;48.816;9.420;2023-04-02T20:43:37;99474.41;;;4.60;70.25
48792;BME280;34587;48.816;9.420;2023-04-02T20:46:05;99474.25;;;4.51;70.30
48792;BME280;34587;48.816;9.420;2023-04-02T20:48:33;99488.72;;;4.47;70.13
48792;BME280;34587;48.816;9.420;2023-04-02T20:51:00;99485.34;;;4.50;70.73
48792;BME280;34587;48.816;9.420;2023-04-02T20:53:31;99490.75;;;4.65;70.15
48792;BME280;34587;48.816;9.420;2023-04-02T20:56:03;99495.63;;;4.50;70.60
48792;BME280;34587;48.816;9.420;2023-04-02T20:58:33;99499.00;;;4.49;70.44
48792;BME280;34587;48.816;9.420;2023-04-02T21:01:18;99503.31;;;4.50;70.25
48792;BME280;34587;48.816;9.420;2023-04-02T21:03:44;99501.56;;;4.49;70.13
48792;BME280;34587;48.816;9.420;2023-04-02T21:06:18;99504.00;;;4.41;70.57
48792;BME280;34587;48.816;9.420;2023-04-02T21:08:44;99511.44;;;4.27;70.39
48792;BME280;34587;48.816;9.420;2023-04-02T21:11:10;99509.66;;;4.23;70.96
48792;BME280;34587;48.816;9.420;2023-04-02T21:13:36;99518.38;;;4.31;71.03
48792;BME280;34587;48.816;9.420;2023-04-02T21:16:11;99513.09;;;4.25;71.13
48792;BME280;34587;48.816;9.420;2023-04-02T21:18:37;99515.66;;;4.25;71.30
48792;BME280;34587;48.816;9.420;2023-04-02T21:21:04;99517.41;;;4.26;71.33
48792;BME280;34587;48.816;9.420;2023-04-02T21:23:31;99526.69;;;4.20;72.07
48792;BME280;34587;48.816;9.420;2023-04-02T21:26:08;99528.63;;;4.31;71.59
48792;BME280;34587;48.816;9.420;2023-04-02T21:28:35;99528.56;;;4.28;71.59
48792;BME280;34587;48.816;9.420;2023-04-02T21:31:05;99524.25;;;4.26;71.60
48792;BME280;34587;48.816;9.420;2023-04-02T21:33:34;99528.66;;;4.34;71.06
48792;BME280;34587;48.816;9.420;2023-04-02T21:36:08;99516.47;;;4.23;71.90